sensor_id;sensor_type;location;lat;lon;timestamp;P1;durP1;ratioP1;P2;durP2;ratioP2
72601;SDS011;60644;55.858;37.390;2022-10-18T00:01:39;11.73;;;4.53;;
72601;SDS011;60644;55.858;37.390;2022-10-18T00:04:05;11.98;;;3.55;;
72601;SDS011;60644;55.858;37.390;2022-10-18T00:06:31;13.07;;;4.47;;
72601;SDS011;60644;55.858;37.390;2022-10-18T00:08:57;10.63;;;3.70;;
72601;SDS011;60644;55.858;37.390;2022-10-18T00:11:23;10.43;;;3.85;;
72601;SDS011;60644;55.858;37.390;2022-10-18T00:13:49;9.13;;;3.90;;
72601;SDS011;60644;55.858;37.390;2022-10-18T00:16:15;9.75;;;3.58;;
72601;SDS011;60644;55.858;37.390;2022-10-18T00:18:42;9.27;;;4.00;;
72601;SDS011;60644;55.858;37.390;2022-10-18T00:21:12;11.40;;;3.92;;
72601;SDS011;60644;55.858;37.390;2022-10-18T00:23:40;10.50;;;4.38;;
72601;SDS011;60644;55.858;37.390;2022-10-18T00:26:08;10.70;;;3.95;;
72601;SDS011;60644;55.858;37.390;2022-10-18T00:28:36;10.93;;;3.90;;
72601;SDS011;60644;55.858;37.390;2022-10-18T00:33:41;8.68;;;3.60;;
72601;SDS011;60644;55.858;37.390;2022-10-18T00:36:08;10.07;;;4.03;;
72601;SDS011;60644;55.858;37.390;2022-10-18T00:38:35;10.15;;;3.85;;
72601;SDS011;60644;55.858;37.390;2022-10-18T00:41:01;11.77;;;3.70;;
72601;SDS011;60644;55.858;37.390;2022-10-18T00:43:28;10.45;;;3.67;;
72601;SDS011;60644;55.858;37.390;2022-10-18T00:45:54;10.60;;;3.50;;
72601;SDS011;60644;55.858;37.390;2022-10-18T00:48:20;12.70;;;4.10;;
72601;SDS011;60644;55.858;37.390;2022-10-18T00:50:48;10.55;;;3.50;;
72601;SDS011;60644;55.858;37.390;2022-10-18T00:53:20;10.53;;;4.00;;
72601;SDS011;60644;55.858;37.390;2022-10-18T00:55:47;9.65;;;3.55;;
72601;SDS011;60644;55.858;37.390;2022-10-18T00:58:14;12.57;;;4.22;;
72601;SDS011;60644;55.858;37.390;2022-10-18T01:00:41;12.13;;;4.05;;
72601;SDS011;60644;55.858;37.390;2022-10-18T01:03:07;10.50;;;4.23;;
72601;SDS011;60644;55.858;37.390;2022-10-18T01:05:37;9.98;;;3.90;;
72601;SDS011;60644;55.858;37.390;2022-10-18T01:23:21;10.27;;;3.45;;
72601;SDS011;60644;55.858;37.390;2022-10-18T01:32:15;10.77;;;4.13;;
72601;SDS011;60644;55.858;37.390;2022-10-18T01:34:46;8.55;;;3.60;;
72601;SDS011;60644;55.858;37.390;2022-10-18T01:37:15;9.85;;;3.97;;
72601;SDS011;60644;55.858;37.390;2022-10-18T01:39:44;11.20;;;4.10;;
72601;SDS011;60644;55.858;37.390;2022-10-18T01:42:11;10.07;;;4.10;;
72601;SDS011;60644;55.858;37.390;2022-10-18T01:44:41;9.43;;;3.90;;
72601;SDS011;60644;55.858;37.390;2022-10-18T01:47:10;10.32;;;4.07;;
72601;SDS011;60644;55.858;37.390;2022-10-18T01:49:37;10.68;;;3.30;;
72601;SDS011;60644;55.858;37.390;2022-10-18T01:52:03;8.80;;;3.25;;
72601;SDS011;60644;55.858;37.390;2022-10-18T01:54:31;8.55;;;3.58;;
72601;SDS011;60644;55.858;37.390;2022-10-18T01:57:00;11.02;;;3.75;;
72601;SDS011;60644;55.858;37.390;2022-10-18T02:02:16;11.05;;;4.07;;
72601;SDS011;60644;55.858;37.390;2022-10-18T02:04:58;12.75;;;4.28;;
72601;SDS011;60644;55.858;37.390;2022-10-18T02:07:36;9.63;;;3.20;;
72601;SDS011;60644;55.858;37.390;2022-10-18T02:12:50;8.88;;;3.60;;
72601;SDS011;60644;55.858;37.390;2022-10-18T02:15:20;9.93;;;3.17;;
72601;SDS011;60644;55.858;37.390;2022-10-18T02:17:49;11.02;;;4.47;;
72601;SDS011;60644;55.858;37.390;2022-10-18T02:20:17;11.63;;;3.88;;
72601;SDS011;60644;55.858;37.390;2022-10-18T02:22:47;10.75;;;3.70;;
72601;SDS011;60644;55.858;37.390;2022-10-18T02:25:24;11.48;;;3.92;;
72601;SDS011;60644;55.858;37.390;2022-10-18T02:27:55;11.75;;;4.32;;
72601;SDS011;60644;55.858;37.390;2022-10-18T02:30:22;11.83;;;4.13;;
72601;SDS011;60644;55.858;37.390;2022-10-18T02:32:59;11.52;;;4.00;;
72601;SDS011;60644;55.858;37.390;2022-10-18T02:35:34;11.13;;;3.83;;
72601;SDS011;60644;55.858;37.390;2022-10-18T02:38:04;9.25;;;4.30;;
72601;SDS011;60644;55.858;37.390;2022-10-18T02:40:33;10.10;;;3.90;;
72601;SDS011;60644;55.858;37.390;2022-10-18T02:42:59;10.47;;;4.33;;
72601;SDS011;60644;55.858;37.390;2022-10-18T02:45:25;9.88;;;3.65;;
72601;SDS011;60644;55.858;37.390;2022-10-18T02:47:51;12.50;;;4.00;;
72601;SDS011;60644;55.858;37.390;2022-10-18T02:50:17;12.07;;;3.65;;
72601;SDS011;60644;55.858;37.390;2022-10-18T02:52:43;10.73;;;3.90;;
72601;SDS011;60644;55.858;37.390;2022-10-18T02:55:09;10.85;;;3.78;;
72601;SDS011;60644;55.858;37.390;2022-10-18T02:57:35;10.70;;;4.07;;
72601;SDS011;60644;55.858;37.390;2022-10-18T03:00:02;9.65;;;3.90;;
72601;SDS011;60644;55.858;37.390;2022-10-18T03:02:29;9.57;;;3.83;;
72601;SDS011;60644;55.858;37.390;2022-10-18T03:04:55;11.40;;;4.30;;
72601;SDS011;60644;55.858;37.390;2022-10-18T03:07:21;11.98;;;4.10;;
72601;SDS011;60644;55.858;37.390;2022-10-18T03:09:47;14.00;;;4.45;;
72601;SDS011;60644;55.858;37.390;2022-10-18T03:12:12;12.33;;;4.23;;
72601;SDS011;60644;55.858;37.390;2022-10-18T03:14:38;8.48;;;3.97;;
72601;SDS011;60644;55.858;37.390;2022-10-18T03:17:04;11.67;;;4.30;;
72601;SDS011;60644;55.858;37.390;2022-10-18T03:19:30;12.88;;;4.10;;
72601;SDS011;60644;55.858;37.390;2022-10-18T03:21:55;12.33;;;4.00;;
72601;SDS011;60644;55.858;37.390;2022-10-18T03:24:21;12.68;;;4.72;;
72601;SDS011;60644;55.858;37.390;2022-10-18T03:26:47;10.23;;;4.20;;
72601;SDS011;60644;55.858;37.390;2022-10-18T03:29:13;13.00;;;4.95;;
72601;SDS011;60644;55.858;37.390;2022-10-18T03:31:38;11.85;;;4.63;;
72601;SDS011;60644;55.858;37.390;2022-10-18T03:34:04;10.23;;;4.10;;
72601;SDS011;60644;55.858;37.390;2022-10-18T03:36:30;13.90;;;4.85;;
72601;SDS011;60644;55.858;37.390;2022-10-18T03:38:58;8.73;;;4.05;;
72601;SDS011;60644;55.858;37.390;2022-10-18T03:41:23;10.37;;;3.90;;
72601;SDS011;60644;55.858;37.390;2022-10-18T03:43:49;11.68;;;5.20;;
72601;SDS011;60644;55.858;37.390;2022-10-18T03:46:15;12.97;;;4.60;;
72601;SDS011;60644;55.858;37.390;2022-10-18T03:48:41;10.98;;;3.95;;
72601;SDS011;60644;55.858;37.390;2022-10-18T03:51:07;12.13;;;4.70;;
72601;SDS011;60644;55.858;37.390;2022-10-18T03:53:33;12.82;;;4.00;;
72601;SDS011;60644;55.858;37.390;2022-10-18T03:55:59;12.07;;;4.43;;
72601;SDS011;60644;55.858;37.390;2022-10-18T03:58:24;9.23;;;4.18;;
72601;SDS011;60644;55.858;37.390;2022-10-18T04:00:50;10.57;;;4.23;;
72601;SDS011;60644;55.858;37.390;2022-10-18T04:03:18;9.85;;;4.35;;
72601;SDS011;60644;55.858;37.390;2022-10-18T04:05:45;11.15;;;4.78;;
72601;SDS011;60644;55.858;37.390;2022-10-18T04:08:11;11.98;;;4.68;;
72601;SDS011;60644;55.858;37.390;2022-10-18T04:10:38;9.70;;;4.07;;
72601;SDS011;60644;55.858;37.390;2022-10-18T04:13:04;12.63;;;6.05;;
72601;SDS011;60644;55.858;37.390;2022-10-18T04:15:30;11.45;;;4.88;;
72601;SDS011;60644;55.858;37.390;2022-10-18T04:17:57;12.13;;;4.70;;
72601;SDS011;60644;55.858;37.390;2022-10-18T04:20:23;12.50;;;4.90;;
72601;SDS011;60644;55.858;37.390;2022-10-18T04:22:49;11.27;;;4.10;;
72601;SDS011;60644;55.858;37.390;2022-10-18T04:25:16;12.20;;;4.75;;
72601;SDS011;60644;55.858;37.390;2022-10-18T04:27:42;11.82;;;4.70;;
72601;SDS011;60644;55.858;37.390;2022-10-18T04:30:08;14.40;;;5.03;;
72601;SDS011;60644;55.858;37.390;2022-10-18T04:32:34;12.10;;;4.63;;
72601;SDS011;60644;55.858;37.390;2022-10-18T04:35:00;11.90;;;5.03;;
72601;SDS011;60644;55.858;37.390;2022-10-18T04:37:28;12.43;;;4.68;;
72601;SDS011;60644;55.858;37.390;2022-10-18T04:39:54;12.07;;;5.45;;
72601;SDS011;60644;55.858;37.390;2022-10-18T04:42:20;13.07;;;5.47;;
72601;SDS011;60644;55.858;37.390;2022-10-18T04:44:46;13.48;;;5.90;;
72601;SDS011;60644;55.858;37.390;2022-10-18T04:47:12;13.55;;;5.90;;
72601;SDS011;60644;55.858;37.390;2022-10-18T04:49:37;15.17;;;5.07;;
72601;SDS011;60644;55.858;37.390;2022-10-18T04:52:03;14.20;;;5.63;;
72601;SDS011;60644;55.858;37.390;2022-10-18T04:54:29;13.70;;;4.95;;
72601;SDS011;60644;55.858;37.390;2022-10-18T04:56:55;16.70;;;5.30;;
72601;SDS011;60644;55.858;37.390;2022-10-18T04:59:21;13.45;;;5.70;;
72601;SDS011;60644;55.858;37.390;2022-10-18T05:01:46;11.30;;;4.80;;
72601;SDS011;60644;55.858;37.390;2022-10-18T05:04:12;11.27;;;5.45;;
72601;SDS011;60644;55.858;37.390;2022-10-18T05:06:38;10.90;;;4.63;;
72601;SDS011;60644;55.858;37.390;2022-10-18T05:09:04;13.47;;;5.73;;
72601;SDS011;60644;55.858;37.390;2022-10-18T05:11:30;13.13;;;5.75;;
72601;SDS011;60644;55.858;37.390;2022-10-18T05:13:56;13.57;;;5.47;;
72601;SDS011;60644;55.858;37.390;2022-10-18T05:16:22;12.55;;;4.85;;
72601;SDS011;60644;55.858;37.390;2022-10-18T05:18:47;15.50;;;6.13;;
72601;SDS011;60644;55.858;37.390;2022-10-18T05:21:13;11.97;;;5.30;;
72601;SDS011;60644;55.858;37.390;2022-10-18T05:23:40;16.42;;;6.25;;
72601;SDS011;60644;55.858;37.390;2022-10-18T05:26:06;12.25;;;5.50;;
72601;SDS011;60644;55.858;37.390;2022-10-18T05:28:33;12.77;;;5.97;;
72601;SDS011;60644;55.858;37.390;2022-10-18T05:31:03;15.88;;;6.47;;
72601;SDS011;60644;55.858;37.390;2022-10-18T05:33:30;13.57;;;5.95;;
72601;SDS011;60644;55.858;37.390;2022-10-18T05:35:57;12.00;;;4.97;;
72601;SDS011;60644;55.858;37.390;2022-10-18T05:38:23;13.43;;;5.20;;
72601;SDS011;60644;55.858;37.390;2022-10-18T05:40:49;12.70;;;5.80;;
72601;SDS011;60644;55.858;37.390;2022-10-18T05:43:15;15.45;;;6.25;;
72601;SDS011;60644;55.858;37.390;2022-10-18T05:45:48;13.45;;;5.18;;
72601;SDS011;60644;55.858;37.390;2022-10-18T05:48:15;15.35;;;6.20;;
72601;SDS011;60644;55.858;37.390;2022-10-18T05:50:41;14.38;;;5.90;;
72601;SDS011;60644;55.858;37.390;2022-10-18T05:53:07;12.60;;;6.13;;
72601;SDS011;60644;55.858;37.390;2022-10-18T05:55:33;13.95;;;6.10;;
72601;SDS011;60644;55.858;37.390;2022-10-18T05:57:59;15.45;;;5.97;;
72601;SDS011;60644;55.858;37.390;2022-10-18T06:00:26;13.27;;;6.05;;
72601;SDS011;60644;55.858;37.390;2022-10-18T06:02:51;13.50;;;5.32;;
72601;SDS011;60644;55.858;37.390;2022-10-18T06:05:17;14.43;;;6.90;;
72601;SDS011;60644;55.858;37.390;2022-10-18T06:07:43;15.30;;;6.50;;
72601;SDS011;60644;55.858;37.390;2022-10-18T06:10:09;13.77;;;5.43;;
72601;SDS011;60644;55.858;37.390;2022-10-18T06:12:34;13.70;;;6.50;;
72601;SDS011;60644;55.858;37.390;2022-10-18T06:15:00;17.08;;;6.65;;
72601;SDS011;60644;55.858;37.390;2022-10-18T06:17:28;16.55;;;7.40;;
72601;SDS011;60644;55.858;37.390;2022-10-18T06:19:54;13.60;;;6.65;;
72601;SDS011;60644;55.858;37.390;2022-10-18T06:22:20;14.23;;;5.95;;
72601;SDS011;60644;55.858;37.390;2022-10-18T06:24:45;14.63;;;6.50;;
72601;SDS011;60644;55.858;37.390;2022-10-18T06:27:11;16.97;;;7.17;;
72601;SDS011;60644;55.858;37.390;2022-10-18T06:29:37;16.40;;;7.38;;
72601;SDS011;60644;55.858;37.390;2022-10-18T06:32:04;16.80;;;8.00;;
72601;SDS011;60644;55.858;37.390;2022-10-18T06:34:31;17.37;;;8.53;;
72601;SDS011;60644;55.858;37.390;2022-10-18T06:36:58;18.10;;;7.50;;
72601;SDS011;60644;55.858;37.390;2022-10-18T06:39:24;20.00;;;7.07;;
72601;SDS011;60644;55.858;37.390;2022-10-18T06:41:50;17.70;;;7.38;;
72601;SDS011;60644;55.858;37.390;2022-10-18T06:44:19;17.70;;;7.00;;
72601;SDS011;60644;55.858;37.390;2022-10-18T06:46:46;17.20;;;8.10;;
72601;SDS011;60644;55.858;37.390;2022-10-18T06:49:13;16.83;;;6.90;;
72601;SDS011;60644;55.858;37.390;2022-10-18T06:51:39;15.88;;;7.13;;
72601;SDS011;60644;55.858;37.390;2022-10-18T06:54:06;15.32;;;6.88;;
72601;SDS011;60644;55.858;37.390;2022-10-18T06:56:31;15.67;;;6.87;;
72601;SDS011;60644;55.858;37.390;2022-10-18T06:58:57;13.88;;;6.35;;
72601;SDS011;60644;55.858;37.390;2022-10-18T07:01:23;15.83;;;7.83;;
72601;SDS011;60644;55.858;37.390;2022-10-18T07:03:51;18.63;;;7.32;;
72601;SDS011;60644;55.858;37.390;2022-10-18T07:06:18;18.58;;;7.82;;
72601;SDS011;60644;55.858;37.390;2022-10-18T07:08:44;18.08;;;7.93;;
72601;SDS011;60644;55.858;37.390;2022-10-18T07:11:18;16.58;;;7.53;;
72601;SDS011;60644;55.858;37.390;2022-10-18T07:13:48;18.47;;;7.80;;
72601;SDS011;60644;55.858;37.390;2022-10-18T07:16:15;16.17;;;7.65;;
72601;SDS011;60644;55.858;37.390;2022-10-18T07:18:43;14.10;;;6.57;;
72601;SDS011;60644;55.858;37.390;2022-10-18T07:21:15;22.50;;;8.60;;
72601;SDS011;60644;55.858;37.390;2022-10-18T07:23:43;14.65;;;7.07;;
72601;SDS011;60644;55.858;37.390;2022-10-18T07:26:14;19.03;;;8.10;;
72601;SDS011;60644;55.858;37.390;2022-10-18T07:28:41;17.25;;;7.25;;
72601;SDS011;60644;55.858;37.390;2022-10-18T07:31:08;19.65;;;8.35;;
72601;SDS011;60644;55.858;37.390;2022-10-18T07:33:35;19.55;;;8.30;;
72601;SDS011;60644;55.858;37.390;2022-10-18T07:36:06;18.50;;;8.48;;
72601;SDS011;60644;55.858;37.390;2022-10-18T07:38:34;19.57;;;7.93;;
72601;SDS011;60644;55.858;37.390;2022-10-18T07:41:01;20.58;;;8.13;;
72601;SDS011;60644;55.858;37.390;2022-10-18T07:43:28;16.98;;;8.10;;
72601;SDS011;60644;55.858;37.390;2022-10-18T07:45:58;17.25;;;7.32;;
72601;SDS011;60644;55.858;37.390;2022-10-18T07:48:26;17.08;;;7.43;;
72601;SDS011;60644;55.858;37.390;2022-10-18T07:50:52;18.03;;;6.93;;
72601;SDS011;60644;55.858;37.390;2022-10-18T07:53:19;19.45;;;7.32;;
72601;SDS011;60644;55.858;37.390;2022-10-18T07:55:45;20.02;;;9.27;;
72601;SDS011;60644;55.858;37.390;2022-10-18T07:58:10;19.50;;;8.33;;
72601;SDS011;60644;55.858;37.390;2022-10-18T08:00:36;21.85;;;9.35;;
72601;SDS011;60644;55.858;37.390;2022-10-18T08:03:03;19.83;;;8.75;;
72601;SDS011;60644;55.858;37.390;2022-10-18T08:05:29;20.13;;;8.35;;
72601;SDS011;60644;55.858;37.390;2022-10-18T08:07:55;23.13;;;8.87;;
72601;SDS011;60644;55.858;37.390;2022-10-18T08:10:21;18.23;;;7.80;;
72601;SDS011;60644;55.858;37.390;2022-10-18T08:12:48;17.98;;;8.55;;
72601;SDS011;60644;55.858;37.390;2022-10-18T08:15:15;20.52;;;8.10;;
72601;SDS011;60644;55.858;37.390;2022-10-18T08:17:41;18.08;;;8.05;;
72601;SDS011;60644;55.858;37.390;2022-10-18T08:20:10;19.30;;;8.23;;
72601;SDS011;60644;55.858;37.390;2022-10-18T08:22:35;19.38;;;8.95;;
72601;SDS011;60644;55.858;37.390;2022-10-18T08:25:01;19.65;;;8.20;;
72601;SDS011;60644;55.858;37.390;2022-10-18T08:27:29;21.23;;;8.82;;
72601;SDS011;60644;55.858;37.390;2022-10-18T08:29:54;27.30;;;8.80;;
72601;SDS011;60644;55.858;37.390;2022-10-18T08:32:20;19.48;;;8.50;;
72601;SDS011;60644;55.858;37.390;2022-10-18T08:34:46;21.33;;;9.33;;
72601;SDS011;60644;55.858;37.390;2022-10-18T08:37:12;19.65;;;8.20;;
72601;SDS011;60644;55.858;37.390;2022-10-18T08:39:37;23.50;;;9.10;;
72601;SDS011;60644;55.858;37.390;2022-10-18T08:45:11;18.02;;;7.47;;
72601;SDS011;60644;55.858;37.390;2022-10-18T08:47:41;20.42;;;7.95;;
72601;SDS011;60644;55.858;37.390;2022-10-18T08:50:13;18.13;;;7.60;;
72601;SDS011;60644;55.858;37.390;2022-10-18T08:57:45;22.90;;;8.95;;
72601;SDS011;60644;55.858;37.390;2022-10-18T09:00:16;21.33;;;7.93;;
72601;SDS011;60644;55.858;37.390;2022-10-18T09:05:53;23.65;;;9.23;;
72601;SDS011;60644;55.858;37.390;2022-10-18T09:22:15;14.48;;;6.88;;
72601;SDS011;60644;55.858;37.390;2022-10-18T09:24:44;15.73;;;7.43;;
72601;SDS011;60644;55.858;37.390;2022-10-18T09:27:16;19.60;;;8.10;;
72601;SDS011;60644;55.858;37.390;2022-10-18T09:35:21;15.52;;;6.82;;
72601;SDS011;60644;55.858;37.390;2022-10-18T09:37:52;17.67;;;7.15;;
72601;SDS011;60644;55.858;37.390;2022-10-18T09:40:25;16.33;;;7.23;;
72601;SDS011;60644;55.858;37.390;2022-10-18T09:42:55;16.73;;;7.53;;
72601;SDS011;60644;55.858;37.390;2022-10-18T09:47:57;17.45;;;7.28;;
72601;SDS011;60644;55.858;37.390;2022-10-18T09:50:41;16.27;;;7.07;;
72601;SDS011;60644;55.858;37.390;2022-10-18T09:56:08;13.10;;;6.05;;
72601;SDS011;60644;55.858;37.390;2022-10-18T09:58:40;16.33;;;7.38;;
72601;SDS011;60644;55.858;37.390;2022-10-18T10:01:09;16.65;;;7.05;;
72601;SDS011;60644;55.858;37.390;2022-10-18T10:03:38;20.20;;;8.13;;
72601;SDS011;60644;55.858;37.390;2022-10-18T10:08:35;16.48;;;7.93;;
72601;SDS011;60644;55.858;37.390;2022-10-18T10:11:06;14.90;;;6.22;;
72601;SDS011;60644;55.858;37.390;2022-10-18T10:14:06;14.02;;;6.25;;
72601;SDS011;60644;55.858;37.390;2022-10-18T10:16:33;15.37;;;7.27;;
72601;SDS011;60644;55.858;37.390;2022-10-18T10:19:14;16.75;;;7.68;;
72601;SDS011;60644;55.858;37.390;2022-10-18T10:21:42;16.40;;;7.18;;
72601;SDS011;60644;55.858;37.390;2022-10-18T10:24:44;16.38;;;7.45;;
72601;SDS011;60644;55.858;37.390;2022-10-18T10:27:17;16.20;;;7.40;;
72601;SDS011;60644;55.858;37.390;2022-10-18T10:30:35;17.67;;;7.55;;
72601;SDS011;60644;55.858;37.390;2022-10-18T10:33:00;17.20;;;8.25;;
72601;SDS011;60644;55.858;37.390;2022-10-18T10:35:28;19.88;;;8.93;;
72601;SDS011;60644;55.858;37.390;2022-10-18T10:37:56;22.13;;;10.10;;
72601;SDS011;60644;55.858;37.390;2022-10-18T10:43:19;23.90;;;10.02;;
72601;SDS011;60644;55.858;37.390;2022-10-18T10:46:00;21.52;;;9.85;;
72601;SDS011;60644;55.858;37.390;2022-10-18T10:48:27;22.70;;;10.52;;
72601;SDS011;60644;55.858;37.390;2022-10-18T10:51:02;22.13;;;11.23;;
72601;SDS011;60644;55.858;37.390;2022-10-18T10:53:33;20.37;;;9.40;;
72601;SDS011;60644;55.858;37.390;2022-10-18T10:56:03;19.88;;;9.38;;
72601;SDS011;60644;55.858;37.390;2022-10-18T10:58:37;19.33;;;9.90;;
72601;SDS011;60644;55.858;37.390;2022-10-18T11:03:46;17.92;;;10.10;;
72601;SDS011;60644;55.858;37.390;2022-10-18T11:09:05;19.77;;;9.60;;
72601;SDS011;60644;55.858;37.390;2022-10-18T11:11:39;17.25;;;8.93;;
72601;SDS011;60644;55.858;37.390;2022-10-18T11:14:24;17.15;;;8.70;;
72601;SDS011;60644;55.858;37.390;2022-10-18T11:16:55;18.05;;;9.63;;
72601;SDS011;60644;55.858;37.390;2022-10-18T11:19:41;18.00;;;8.87;;
72601;SDS011;60644;55.858;37.390;2022-10-18T11:22:20;17.52;;;9.40;;
72601;SDS011;60644;55.858;37.390;2022-10-18T11:24:49;19.38;;;9.90;;
72601;SDS011;60644;55.858;37.390;2022-10-18T11:27:23;22.70;;;9.57;;
72601;SDS011;60644;55.858;37.390;2022-10-18T11:35:34;18.63;;;8.55;;
72601;SDS011;60644;55.858;37.390;2022-10-18T11:38:33;18.30;;;9.00;;
72601;SDS011;60644;55.858;37.390;2022-10-18T11:41:29;17.35;;;9.20;;
72601;SDS011;60644;55.858;37.390;2022-10-18T11:47:13;17.92;;;8.90;;
72601;SDS011;60644;55.858;37.390;2022-10-18T11:52:52;19.05;;;10.32;;
72601;SDS011;60644;55.858;37.390;2022-10-18T11:55:28;17.60;;;9.02;;
72601;SDS011;60644;55.858;37.390;2022-10-18T12:05:49;17.48;;;9.07;;
72601;SDS011;60644;55.858;37.390;2022-10-18T12:08:17;17.83;;;9.23;;
72601;SDS011;60644;55.858;37.390;2022-10-18T12:10:50;17.77;;;9.23;;
72601;SDS011;60644;55.858;37.390;2022-10-18T12:13:22;17.83;;;9.25;;
72601;SDS011;60644;55.858;37.390;2022-10-18T12:15:58;16.38;;;8.27;;
72601;SDS011;60644;55.858;37.390;2022-10-18T12:18:26;18.48;;;9.88;;
72601;SDS011;60644;55.858;37.390;2022-10-18T12:20:54;16.83;;;8.50;;
72601;SDS011;60644;55.858;37.390;2022-10-18T12:26:02;14.82;;;8.20;;
72601;SDS011;60644;55.858;37.390;2022-10-18T12:28:54;16.08;;;8.23;;
72601;SDS011;60644;55.858;37.390;2022-10-18T12:31:45;15.80;;;8.18;;
72601;SDS011;60644;55.858;37.390;2022-10-18T12:39:24;14.75;;;7.07;;
72601;SDS011;60644;55.858;37.390;2022-10-18T12:41:53;14.10;;;6.40;;
72601;SDS011;60644;55.858;37.390;2022-10-18T12:44:23;13.82;;;6.90;;
72601;SDS011;60644;55.858;37.390;2022-10-18T12:47:02;10.90;;;5.85;;
72601;SDS011;60644;55.858;37.390;2022-10-18T12:51:57;11.30;;;5.90;;
72601;SDS011;60644;55.858;37.390;2022-10-18T12:54:29;12.10;;;5.53;;
72601;SDS011;60644;55.858;37.390;2022-10-18T12:56:57;12.25;;;5.85;;
72601;SDS011;60644;55.858;37.390;2022-10-18T13:09:34;6.80;;;2.95;;
72601;SDS011;60644;55.858;37.390;2022-10-18T13:17:27;5.33;;;1.60;;
72601;SDS011;60644;55.858;37.390;2022-10-18T13:20:08;5.13;;;1.50;;
72601;SDS011;60644;55.858;37.390;2022-10-18T13:28:12;3.78;;;1.20;;
72601;SDS011;60644;55.858;37.390;2022-10-18T13:30:56;3.73;;;0.83;;
72601;SDS011;60644;55.858;37.390;2022-10-18T13:33:32;2.95;;;0.60;;
72601;SDS011;60644;55.858;37.390;2022-10-18T14:07:59;3.43;;;0.63;;
72601;SDS011;60644;55.858;37.390;2022-10-18T14:13:23;3.40;;;0.90;;
72601;SDS011;60644;55.858;37.390;2022-10-18T14:15:55;3.35;;;0.85;;
72601;SDS011;60644;55.858;37.390;2022-10-18T14:18:32;3.53;;;0.90;;
72601;SDS011;60644;55.858;37.390;2022-10-18T14:21:02;3.40;;;0.90;;
72601;SDS011;60644;55.858;37.390;2022-10-18T14:23:34;4.80;;;0.90;;
72601;SDS011;60644;55.858;37.390;2022-10-18T14:26:05;3.38;;;0.60;;
72601;SDS011;60644;55.858;37.390;2022-10-18T14:28:42;5.90;;;0.70;;
72601;SDS011;60644;55.858;37.390;2022-10-18T14:31:13;2.28;;;0.40;;
72601;SDS011;60644;55.858;37.390;2022-10-18T14:33:42;3.30;;;0.80;;
72601;SDS011;60644;55.858;37.390;2022-10-18T14:36:12;1.95;;;0.40;;
72601;SDS011;60644;55.858;37.390;2022-10-18T14:38:50;3.40;;;0.60;;
72601;SDS011;60644;55.858;37.390;2022-10-18T14:43:51;2.67;;;0.65;;
72601;SDS011;60644;55.858;37.390;2022-10-18T14:46:30;2.90;;;0.47;;
72601;SDS011;60644;55.858;37.390;2022-10-18T14:48:59;2.33;;;0.32;;
72601;SDS011;60644;55.858;37.390;2022-10-18T14:51:26;2.28;;;0.47;;
72601;SDS011;60644;55.858;37.390;2022-10-18T14:53:56;3.67;;;0.40;;
72601;SDS011;60644;55.858;37.390;2022-10-18T14:56:26;2.27;;;0.50;;
72601;SDS011;60644;55.858;37.390;2022-10-18T14:58:55;4.07;;;0.50;;
72601;SDS011;60644;55.858;37.390;2022-10-18T15:01:28;2.92;;;0.45;;
72601;SDS011;60644;55.858;37.390;2022-10-18T15:03:56;2.33;;;0.40;;
72601;SDS011;60644;55.858;37.390;2022-10-18T15:06:24;1.63;;;0.30;;
72601;SDS011;60644;55.858;37.390;2022-10-18T15:08:57;3.85;;;0.40;;
72601;SDS011;60644;55.858;37.390;2022-10-18T15:11:25;1.95;;;0.30;;
72601;SDS011;60644;55.858;37.390;2022-10-18T15:13:59;2.00;;;0.38;;
72601;SDS011;60644;55.858;37.390;2022-10-18T15:16:28;2.42;;;0.40;;
72601;SDS011;60644;55.858;37.390;2022-10-18T15:22:01;1.42;;;0.20;;
72601;SDS011;60644;55.858;37.390;2022-10-18T15:29:36;1.60;;;0.20;;
72601;SDS011;60644;55.858;37.390;2022-10-18T15:32:14;2.80;;;0.20;;
72601;SDS011;60644;55.858;37.390;2022-10-18T15:34:50;1.83;;;0.30;;
72601;SDS011;60644;55.858;37.390;2022-10-18T15:42:46;1.55;;;0.30;;
72601;SDS011;60644;55.858;37.390;2022-10-18T15:50:40;1.63;;;0.22;;
72601;SDS011;60644;55.858;37.390;2022-10-18T16:00:47;1.65;;;0.20;;
72601;SDS011;60644;55.858;37.390;2022-10-18T16:03:15;2.35;;;0.30;;
72601;SDS011;60644;55.858;37.390;2022-10-18T16:05:42;1.15;;;0.30;;
72601;SDS011;60644;55.858;37.390;2022-10-18T16:08:22;1.27;;;0.20;;
72601;SDS011;60644;55.858;37.390;2022-10-18T16:10:50;1.73;;;0.30;;
72601;SDS011;60644;55.858;37.390;2022-10-18T16:13:16;2.03;;;0.30;;
72601;SDS011;60644;55.858;37.390;2022-10-18T16:15:43;1.88;;;0.30;;
72601;SDS011;60644;55.858;37.390;2022-10-18T16:18:12;1.02;;;0.20;;
72601;SDS011;60644;55.858;37.390;2022-10-18T16:20:40;4.53;;;0.60;;
72601;SDS011;60644;55.858;37.390;2022-10-18T16:23:14;3.53;;;0.50;;
72601;SDS011;60644;55.858;37.390;2022-10-18T16:25:42;1.85;;;0.20;;
72601;SDS011;60644;55.858;37.390;2022-10-18T16:28:12;4.85;;;0.35;;
72601;SDS011;60644;55.858;37.390;2022-10-18T16:30:41;2.08;;;0.30;;
72601;SDS011;60644;55.858;37.390;2022-10-18T16:33:09;1.53;;;0.20;;
72601;SDS011;60644;55.858;37.390;2022-10-18T16:35:35;2.67;;;0.40;;
72601;SDS011;60644;55.858;37.390;2022-10-18T16:38:01;1.95;;;0.22;;
72601;SDS011;60644;55.858;37.390;2022-10-18T16:40:27;1.25;;;0.15;;
72601;SDS011;60644;55.858;37.390;2022-10-18T16:42:53;1.17;;;0.20;;
72601;SDS011;60644;55.858;37.390;2022-10-18T16:45:19;2.42;;;0.28;;
72601;SDS011;60644;55.858;37.390;2022-10-18T16:47:45;2.88;;;0.32;;
72601;SDS011;60644;55.858;37.390;2022-10-18T16:50:15;2.10;;;0.20;;
72601;SDS011;60644;55.858;37.390;2022-10-18T16:52:43;1.65;;;0.20;;
72601;SDS011;60644;55.858;37.390;2022-10-18T16:55:09;2.70;;;0.30;;
72601;SDS011;60644;55.858;37.390;2022-10-18T16:57:41;2.15;;;0.20;;
72601;SDS011;60644;55.858;37.390;2022-10-18T17:00:15;2.17;;;0.30;;
72601;SDS011;60644;55.858;37.390;2022-10-18T17:02:45;2.60;;;0.40;;
72601;SDS011;60644;55.858;37.390;2022-10-18T17:05:13;3.30;;;0.70;;
72601;SDS011;60644;55.858;37.390;2022-10-18T17:07:39;2.30;;;0.40;;
72601;SDS011;60644;55.858;37.390;2022-10-18T17:10:05;1.52;;;0.20;;
72601;SDS011;60644;55.858;37.390;2022-10-18T17:12:31;3.33;;;0.55;;
72601;SDS011;60644;55.858;37.390;2022-10-18T17:14:57;2.73;;;0.30;;
72601;SDS011;60644;55.858;37.390;2022-10-18T17:17:23;1.58;;;0.30;;
72601;SDS011;60644;55.858;37.390;2022-10-18T17:19:49;2.97;;;0.60;;
72601;SDS011;60644;55.858;37.390;2022-10-18T17:22:15;2.90;;;0.60;;
72601;SDS011;60644;55.858;37.390;2022-10-18T17:24:40;2.80;;;0.50;;
72601;SDS011;60644;55.858;37.390;2022-10-18T17:27:07;3.77;;;0.60;;
72601;SDS011;60644;55.858;37.390;2022-10-18T17:29:34;4.10;;;0.65;;
72601;SDS011;60644;55.858;37.390;2022-10-18T17:32:00;6.25;;;0.60;;
72601;SDS011;60644;55.858;37.390;2022-10-18T17:34:27;3.42;;;0.52;;
72601;SDS011;60644;55.858;37.390;2022-10-18T17:36:53;3.40;;;0.70;;
72601;SDS011;60644;55.858;37.390;2022-10-18T17:39:20;5.35;;;0.93;;
72601;SDS011;60644;55.858;37.390;2022-10-18T17:41:46;2.67;;;0.47;;
72601;SDS011;60644;55.858;37.390;2022-10-18T17:44:11;3.53;;;0.60;;
72601;SDS011;60644;55.858;37.390;2022-10-18T17:46:38;2.78;;;0.50;;
72601;SDS011;60644;55.858;37.390;2022-10-18T17:49:04;5.40;;;0.70;;